createdAt,value
2023-07-29T00:03:05.094Z,99.60
2023-07-29T00:06:28.042Z,99.50
2023-07-29T00:09:50.343Z,99.60
2023-07-29T00:13:12.609Z,99.60
2023-07-29T00:16:35.113Z,99.60
2023-07-29T00:19:57.503Z,99.60
2023-07-29T00:23:20.215Z,99.60
2023-07-29T00:26:42.429Z,99.60
2023-07-29T00:30:05.811Z,99.60
2023-07-29T00:33:28.057Z,99.60
2023-07-29T00:36:50.394Z,99.60
2023-07-29T00:40:23.243Z,99.50
2023-07-29T00:43:45.487Z,99.60
2023-07-29T00:47:08.839Z,99.60
2023-07-29T00:50:32.732Z,99.60
2023-07-29T00:53:56.372Z,99.60
2023-07-29T00:57:20.347Z,99.50
2023-07-29T01:00:43.016Z,99.60
2023-07-29T01:04:05.342Z,99.60
2023-07-29T01:07:40.181Z,99.60
2023-07-29T01:11:32.203Z,99.60
2023-07-29T01:15:20.097Z,99.50
2023-07-29T01:18:46.812Z,99.60
2023-07-29T01:22:10.356Z,99.90
2023-07-29T01:25:32.602Z,99.60
2023-07-29T01:28:55.062Z,99.60
2023-07-29T01:32:29.507Z,99.60
2023-07-29T01:36:17.693Z,99.60
2023-07-29T01:39:40.698Z,99.60
2023-07-29T01:43:03.450Z,99.60
2023-07-29T01:46:26.564Z,99.70
2023-07-29T01:49:48.755Z,99.60
2023-07-29T01:53:11.002Z,99.60
2023-07-29T01:56:34.073Z,99.70
2023-07-29T01:59:56.571Z,99.70
2023-07-29T02:03:19.149Z,99.70
2023-07-29T02:06:41.522Z,99.70
2023-07-29T02:10:04.044Z,99.70
2023-07-29T02:13:26.301Z,99.70
2023-07-29T02:16:48.830Z,99.80
2023-07-29T02:20:11.885Z,99.80
2023-07-29T02:23:34.419Z,99.80
2023-07-29T02:26:56.829Z,99.80
2023-07-29T02:30:19.051Z,99.80
2023-07-29T02:33:41.380Z,99.80
2023-07-29T02:37:03.878Z,99.80
2023-07-29T02:40:27.929Z,99.80
2023-07-29T02:43:51.215Z,99.90
2023-07-29T02:47:13.921Z,99.90
2023-07-29T02:50:36.151Z,99.90
2023-07-29T02:53:58.537Z,99.90
2023-07-29T02:57:21.468Z,99.90
2023-07-29T03:00:44.571Z,99.90
2023-07-29T03:04:07.397Z,99.90
2023-07-29T03:07:29.687Z,99.90
2023-07-29T03:10:51.970Z,99.90
2023-07-29T03:14:14.368Z,99.90
2023-07-29T03:17:36.695Z,99.90
2023-07-29T03:20:58.919Z,99.90
2023-07-29T03:24:21.162Z,99.90
2023-07-29T03:27:43.538Z,99.90
2023-07-29T03:31:07.119Z,99.90
2023-07-29T03:34:29.846Z,99.90
2023-07-29T03:37:52.215Z,99.90
2023-07-29T03:41:14.391Z,99.90
2023-07-29T03:44:36.751Z,99.90
2023-07-29T03:47:59.075Z,99.90
2023-07-29T03:51:22.788Z,99.90
2023-07-29T03:54:45.183Z,99.90
2023-07-29T03:58:07.434Z,99.90
2023-07-29T04:01:29.971Z,99.90
2023-07-29T04:04:52.981Z,99.90
2023-07-29T04:08:15.321Z,99.90
2023-07-29T04:11:38.000Z,99.90
2023-07-29T04:15:00.615Z,99.90
2023-07-29T04:18:22.831Z,99.90
2023-07-29T04:21:45.377Z,99.90
2023-07-29T04:25:08.020Z,99.90
2023-07-29T04:28:30.501Z,99.90
2023-07-29T04:31:53.291Z,99.90
2023-07-29T04:35:15.671Z,99.90
2023-07-29T04:38:38.970Z,99.90
2023-07-29T04:42:02.041Z,99.90
2023-07-29T04:45:24.282Z,99.90
2023-07-29T04:48:46.644Z,99.90
2023-07-29T04:52:09.086Z,99.90
2023-07-29T04:55:31.375Z,99.90
2023-07-29T04:58:54.321Z,99.90
2023-07-29T05:02:16.662Z,99.90
2023-07-29T05:05:38.871Z,99.90
2023-07-29T05:09:17.089Z,99.90
2023-07-29T05:12:39.868Z,99.90
2023-07-29T05:16:02.158Z,99.90
2023-07-29T05:19:24.512Z,99.90
2023-07-29T05:22:46.702Z,99.90
2023-07-29T05:26:08.988Z,99.90
2023-07-29T05:29:31.508Z,99.90
2023-07-29T05:32:54.521Z,99.90
2023-07-29T05:36:16.895Z,99.90
2023-07-29T05:39:39.254Z,99.90
2023-07-29T05:43:01.520Z,99.90
2023-07-29T05:46:23.899Z,99.90
2023-07-29T05:49:46.174Z,99.90
2023-07-29T05:53:08.518Z,99.90
2023-07-29T05:56:32.462Z,99.90
2023-07-29T05:59:54.809Z,99.90
2023-07-29T06:03:17.208Z,99.90
2023-07-29T06:06:39.780Z,99.90
2023-07-29T06:10:02.198Z,99.90
2023-07-29T06:13:24.443Z,99.90
2023-07-29T06:16:46.745Z,99.90
2023-07-29T06:20:09.667Z,99.90
2023-07-29T06:23:31.929Z,99.90
2023-07-29T06:26:54.208Z,99.90
2023-07-29T06:30:16.528Z,99.90
2023-07-29T06:33:38.764Z,99.90
2023-07-29T06:37:01.013Z,99.90
2023-07-29T06:40:23.266Z,99.90
2023-07-29T06:43:45.438Z,99.90
2023-07-29T06:47:10.070Z,99.90
2023-07-29T06:50:32.522Z,99.90
2023-07-29T06:53:54.705Z,99.90
2023-07-29T06:57:16.911Z,99.90
2023-07-29T07:00:39.133Z,99.90
2023-07-29T07:04:01.423Z,99.90
2023-07-29T07:07:23.831Z,99.90
2023-07-29T07:10:48.269Z,99.90
2023-07-29T07:14:10.558Z,99.90
2023-07-29T07:17:32.863Z,99.90
2023-07-29T07:20:55.086Z,99.90
2023-07-29T07:24:17.274Z,99.90
2023-07-29T07:27:39.572Z,99.90
2023-07-29T07:31:01.844Z,99.90
2023-07-29T07:34:24.209Z,99.90
2023-07-29T07:37:46.400Z,99.90
2023-07-29T07:41:08.669Z,99.90
2023-07-29T07:44:30.924Z,99.90
2023-07-29T07:47:54.849Z,99.90
2023-07-29T07:51:17.154Z,99.90
2023-07-29T07:54:39.492Z,99.90
2023-07-29T07:58:01.706Z,99.90
2023-07-29T08:01:23.938Z,99.90
2023-07-29T08:04:46.212Z,99.90
2023-07-29T08:08:08.430Z,99.90
2023-07-29T08:11:30.718Z,99.90
2023-07-29T08:14:52.953Z,99.90
2023-07-29T08:18:15.158Z,99.90
2023-07-29T08:21:37.646Z,99.90
2023-07-29T08:24:59.852Z,99.90
2023-07-29T08:28:22.393Z,99.40
2023-07-29T08:31:44.750Z,98.90
2023-07-29T08:35:07.249Z,98.90
2023-07-29T08:38:29.850Z,99.30
2023-07-29T08:41:58.159Z,98.70
2023-07-29T08:45:20.629Z,98.90
2023-07-29T08:48:44.517Z,99.10
2023-07-29T08:52:08.410Z,98.80
2023-07-29T08:55:31.826Z,98.50
2023-07-29T08:58:54.177Z,98.70
2023-07-29T09:02:16.484Z,98.80
2023-07-29T09:05:38.749Z,98.10
2023-07-29T09:09:01.830Z,98.20
2023-07-29T09:12:24.157Z,97.70
2023-07-29T09:15:47.137Z,97.80
2023-07-29T09:19:09.490Z,97.40
2023-07-29T09:22:32.550Z,97.90
2023-07-29T09:26:05.591Z,97.30
2023-07-29T09:29:29.661Z,96.90
2023-07-29T09:32:59.265Z,96.80
2023-07-29T09:36:22.715Z,96.90
2023-07-29T09:39:49.039Z,95.50
2023-07-29T09:43:11.926Z,94.90
2023-07-29T09:46:39.457Z,96.10
2023-07-29T09:50:02.326Z,95.20
2023-07-29T09:53:25.944Z,96.20
2023-07-29T09:56:48.769Z,94.90
2023-07-29T10:00:14.979Z,93.80
2023-07-29T10:03:37.472Z,93.50
2023-07-29T10:07:01.671Z,93.10
2023-07-29T10:10:24.373Z,94.20
2023-07-29T10:14:00.250Z,93.60
2023-07-29T10:17:28.598Z,93.10
2023-07-29T10:20:52.965Z,92.90
2023-07-29T10:24:19.430Z,92.50
2023-07-29T10:28:06.209Z,94.60
2023-07-29T10:31:30.296Z,92.10
2023-07-29T10:34:53.001Z,91.00
2023-07-29T10:38:16.436Z,90.80
2023-07-29T10:42:02.067Z,90.50
2023-07-29T10:45:24.665Z,90.50
2023-07-29T10:48:53.871Z,91.30
2023-07-29T10:52:17.902Z,91.60
2023-07-29T10:55:40.164Z,91.70
2023-07-29T10:59:17.828Z,91.80
2023-07-29T11:02:40.234Z,91.30
2023-07-29T11:06:05.873Z,91.80
2023-07-29T11:09:55.979Z,91.60
2023-07-29T11:13:19.511Z,92.40
2023-07-29T11:16:42.668Z,91.00
2023-07-29T11:20:05.534Z,91.80
2023-07-29T11:23:38.196Z,91.00
2023-07-29T11:27:00.494Z,90.90
2023-07-29T11:30:32.150Z,90.50
2023-07-29T11:33:54.366Z,90.80
2023-07-29T11:37:17.791Z,91.10
2023-07-29T11:40:40.078Z,91.30
2023-07-29T11:44:02.347Z,90.70
2023-07-29T11:47:24.821Z,91.10
2023-07-29T11:50:47.412Z,91.20
2023-07-29T11:54:10.206Z,90.90
2023-07-29T11:57:35.685Z,91.60
2023-07-29T12:00:57.913Z,90.80
2023-07-29T12:04:20.536Z,90.70
2023-07-29T12:07:44.293Z,91.10
2023-07-29T12:11:07.414Z,90.20
2023-07-29T12:14:30.408Z,90.00
2023-07-29T12:17:56.340Z,89.10
2023-07-29T12:21:20.397Z,89.00
2023-07-29T12:24:42.756Z,87.60
2023-07-29T12:28:07.724Z,88.80
2023-07-29T12:31:33.997Z,90.30
2023-07-29T12:34:56.241Z,90.80
2023-07-29T12:38:22.904Z,90.70
2023-07-29T12:41:45.279Z,90.90
2023-07-29T12:45:08.083Z,90.40
2023-07-29T12:48:30.393Z,90.10
2023-07-29T12:51:52.647Z,90.00
2023-07-29T12:55:14.866Z,89.90
2023-07-29T12:58:37.129Z,90.40
2023-07-29T13:01:59.340Z,90.00
2023-07-29T13:05:21.975Z,90.20
2023-07-29T13:08:45.356Z,90.40
2023-07-29T13:12:08.101Z,90.30
2023-07-29T13:15:30.306Z,90.10
2023-07-29T13:18:52.492Z,90.00
2023-07-29T13:22:14.746Z,89.70
2023-07-29T13:25:36.978Z,89.40
2023-07-29T13:28:59.288Z,89.60
2023-07-29T13:32:21.707Z,90.60
2023-07-29T13:35:43.950Z,90.20
2023-07-29T13:39:06.217Z,90.50
2023-07-29T13:42:28.361Z,90.70
2023-07-29T13:45:51.340Z,90.20
2023-07-29T13:49:13.647Z,90.10
2023-07-29T13:52:37.761Z,90.10
2023-07-29T13:56:00.004Z,90.00
2023-07-29T13:59:22.284Z,90.00
2023-07-29T14:02:44.907Z,90.40
2023-07-29T14:06:07.365Z,90.40
2023-07-29T14:09:29.568Z,90.00
2023-07-29T14:12:51.938Z,90.10
2023-07-29T14:16:14.186Z,90.60
2023-07-29T14:19:36.808Z,90.90
2023-07-29T14:22:59.070Z,90.70
2023-07-29T14:26:21.399Z,90.60
2023-07-29T14:29:43.785Z,90.50
2023-07-29T14:33:06.060Z,90.50
2023-07-29T14:36:29.755Z,90.10
2023-07-29T14:39:52.283Z,90.40
2023-07-29T14:43:14.604Z,90.50
2023-07-29T14:46:37.201Z,90.70
2023-07-29T14:49:59.594Z,90.70
2023-07-29T14:53:22.851Z,90.90
2023-07-29T14:56:45.056Z,90.90
2023-07-29T15:00:08.490Z,90.90
2023-07-29T15:03:30.925Z,90.90
2023-07-29T15:06:53.149Z,90.90
2023-07-29T15:10:19.111Z,90.90
2023-07-29T15:13:41.350Z,90.90
2023-07-29T15:17:03.732Z,91.10
2023-07-29T15:20:25.957Z,90.80
2023-07-29T15:23:48.257Z,90.00
2023-07-29T15:27:11.643Z,90.00
2023-07-29T15:30:37.209Z,90.00
2023-07-29T15:33:59.443Z,89.80
2023-07-29T15:37:21.835Z,89.80
2023-07-29T15:40:44.093Z,90.10
2023-07-29T15:44:06.405Z,90.60
2023-07-29T15:47:28.627Z,92.00
2023-07-29T15:50:50.898Z,92.50
2023-07-29T15:54:13.165Z,93.50
2023-07-29T15:57:35.540Z,93.60
2023-07-29T16:00:57.801Z,94.20
2023-07-29T16:04:20.006Z,95.90
2023-07-29T16:07:42.328Z,95.60
2023-07-29T16:11:04.681Z,99.30
2023-07-29T16:14:26.929Z,99.90
2023-07-29T16:17:53.553Z,99.90
2023-07-29T16:21:15.939Z,99.90
2023-07-29T16:24:38.175Z,99.80
2023-07-29T16:28:00.475Z,99.80
2023-07-29T16:31:22.815Z,99.40
2023-07-29T16:34:45.083Z,98.90
2023-07-29T16:38:07.418Z,98.50
2023-07-29T16:42:02.433Z,98.60
2023-07-29T16:45:11.855Z,98.90
2023-07-29T16:48:34.177Z,98.70
2023-07-29T16:51:56.403Z,98.70
2023-07-29T16:55:18.647Z,96.20
2023-07-29T16:58:40.799Z,96.70
2023-07-29T17:02:08.269Z,97.20
2023-07-29T17:05:30.955Z,97.90
2023-07-29T17:08:53.211Z,98.50
2023-07-29T17:12:15.771Z,98.70
2023-07-29T17:15:37.989Z,98.90
2023-07-29T17:19:02.332Z,99.00
2023-07-29T17:22:24.558Z,98.50
2023-07-29T17:25:46.838Z,98.60
2023-07-29T17:29:09.089Z,98.50
2023-07-29T17:32:31.578Z,98.50
2023-07-29T17:35:56.142Z,98.80
2023-07-29T17:39:18.295Z,98.80
2023-07-29T17:42:40.536Z,99.20
2023-07-29T17:46:02.797Z,99.20
2023-07-29T17:49:25.068Z,99.40
2023-07-29T17:52:47.431Z,99.60
2023-07-29T17:56:11.073Z,99.90
2023-07-29T17:59:33.241Z,99.80
2023-07-29T18:02:56.978Z,99.60
2023-07-29T18:06:19.359Z,99.90
2023-07-29T18:09:41.642Z,99.90
2023-07-29T18:13:04.842Z,99.90
2023-07-29T18:16:28.599Z,99.90
2023-07-29T18:19:50.874Z,99.90
2023-07-29T18:23:13.558Z,99.90
2023-07-29T18:26:35.768Z,99.90
2023-07-29T18:29:58.037Z,99.90
2023-07-29T18:33:20.362Z,99.90
2023-07-29T18:36:45.853Z,99.90
2023-07-29T18:40:09.331Z,99.90
2023-07-29T18:43:31.506Z,99.90
2023-07-29T18:46:54.841Z,99.90
2023-07-29T18:50:18.033Z,99.90
2023-07-29T18:53:40.253Z,99.90
2023-07-29T18:57:02.716Z,99.90
2023-07-29T19:00:24.919Z,99.90
2023-07-29T19:03:47.376Z,99.90
2023-07-29T19:07:09.806Z,99.90
2023-07-29T19:10:32.037Z,99.70
2023-07-29T19:13:55.338Z,99.10
2023-07-29T19:17:17.594Z,98.80
2023-07-29T19:20:39.876Z,98.60
2023-07-29T19:24:02.062Z,98.40
2023-07-29T19:27:24.315Z,98.30
2023-07-29T19:30:46.517Z,98.20
2023-07-29T19:34:09.339Z,98.10
2023-07-29T19:37:31.932Z,97.90
2023-07-29T19:40:54.185Z,97.80
2023-07-29T19:44:22.678Z,97.60
2023-07-29T19:47:45.742Z,97.60
2023-07-29T19:51:08.003Z,97.40
2023-07-29T19:54:30.322Z,97.40
2023-07-29T19:57:52.590Z,97.70
2023-07-29T20:01:16.201Z,97.30
2023-07-29T20:04:38.533Z,97.30
2023-07-29T20:08:00.741Z,97.20
2023-07-29T20:11:23.066Z,97.10
2023-07-29T20:14:45.415Z,97.10
2023-07-29T20:18:07.894Z,97.00
2023-07-29T20:21:30.169Z,96.90
2023-07-29T20:24:52.480Z,96.80
2023-07-29T20:28:15.992Z,96.80
2023-07-29T20:31:38.643Z,96.80
2023-07-29T20:35:01.052Z,96.80
2023-07-29T20:38:23.506Z,96.70
2023-07-29T20:41:45.792Z,96.70
2023-07-29T20:45:08.764Z,96.60
2023-07-29T20:48:32.250Z,96.60
2023-07-29T20:51:55.759Z,96.60
2023-07-29T20:55:18.059Z,96.60
2023-07-29T20:58:40.325Z,96.60
2023-07-29T21:02:05.112Z,96.60
2023-07-29T21:05:27.416Z,97.00
2023-07-29T21:08:49.596Z,96.30
2023-07-29T21:12:11.798Z,96.20
2023-07-29T21:15:34.005Z,96.20
2023-07-29T21:18:56.301Z,96.30
2023-07-29T21:22:18.520Z,96.50
2023-07-29T21:25:41.209Z,96.70
2023-07-29T21:29:03.462Z,96.80
2023-07-29T21:32:25.718Z,96.90
2023-07-29T21:35:49.208Z,97.00
2023-07-29T21:39:11.396Z,96.90
2023-07-29T21:42:34.098Z,97.10
2023-07-29T21:45:56.476Z,97.10
2023-07-29T21:49:18.640Z,97.10
2023-07-29T21:52:41.194Z,97.00
2023-07-29T21:56:03.471Z,97.10
2023-07-29T21:59:25.753Z,97.10
2023-07-29T22:02:48.039Z,97.00
2023-07-29T22:06:10.397Z,97.00
2023-07-29T22:09:32.773Z,97.00
2023-07-29T22:12:55.723Z,97.00
2023-07-29T22:16:19.098Z,97.00
2023-07-29T22:19:42.100Z,97.00
2023-07-29T22:23:04.420Z,97.00
2023-07-29T22:26:26.813Z,97.00
2023-07-29T22:29:49.100Z,96.90
2023-07-29T22:33:11.408Z,96.90
2023-07-29T22:36:33.662Z,96.90
2023-07-29T22:39:55.867Z,96.90
2023-07-29T22:43:18.107Z,96.90
2023-07-29T22:46:40.548Z,96.90
2023-07-29T22:50:03.502Z,96.90
2023-07-29T22:53:25.931Z,97.00
2023-07-29T22:56:48.150Z,97.00
2023-07-29T23:00:10.788Z,97.00
2023-07-29T23:03:33.027Z,97.00
2023-07-29T23:06:56.139Z,97.00
2023-07-29T23:10:18.422Z,96.90
2023-07-29T23:13:42.107Z,96.90
2023-07-29T23:17:04.378Z,96.90
2023-07-29T23:20:27.740Z,96.90
2023-07-29T23:23:50.049Z,96.90
2023-07-29T23:27:12.307Z,96.80
2023-07-29T23:30:34.656Z,96.90
2023-07-29T23:33:56.954Z,96.80
2023-07-29T23:37:19.252Z,96.80
2023-07-29T23:40:41.496Z,96.70
2023-07-29T23:44:03.831Z,96.70
2023-07-29T23:47:26.129Z,96.60
2023-07-29T23:50:48.384Z,96.70
2023-07-29T23:54:10.574Z,96.60
2023-07-29T23:57:32.766Z,96.60
